METAR AND TAF INFORMATION

METAR FOR SVMT
ADDS - METARS form results

(0143 UTC 05 December 2022)
Data provider http://aviationweather.gov/metar/data/
 
METAR text: SVMT 050103Z AUTO 04005KT NCD 24/24 Q1009
Conditions at: SVMT (MATURIN , VE) observed 0103 UTC 05 December 2022
Temperature: 24.0°C (75°F)
Dewpoint: 24.0°C (75°F) [RH = 100%]
Pressure (altimeter): 29.79 inches Hg (1009.0 mb)
Winds: from the NE (40 degrees) at 6 MPH (5 knots; 2.6 m/s)
Visibility: missing
Ceiling: at least 12,000 feet AGL
Clouds: sky clear below 12,000 feet AGL
Weather: no significant weather observed at this time

 

AIRPORT MAP

 

RUNWAY INFORMATION

Runway 06 Runway length 6890 ft Runway width 148 ft
Runway elevation 213 ft Runway displaced threshold 685 ft Runway heading 49
Runway 24 Runway length 6890 ft Runway width 148 ft
Runway elevation 194 ft Runway displaced threshold 0 ft Runway heading 229

 

AIRPORT FREQUENCIES

Type GND Name GND Frequency 121.9 MHZ
Type TWR Name TWR Frequency 118.5 MHZ

 

AIRPORT NEAR NAVIGATION AIDS

Type VOR-DME Name Maturin Frequency 115300 KHZ
Type NDB Name Maturin Frequency 230 KHZ